createdAt,value
2023-01-31T00:00:28.142Z,3.90
2023-01-31T00:04:00.240Z,3.40
2023-01-31T00:07:03.050Z,3.00
2023-01-31T00:10:06.303Z,3.80
2023-01-31T00:13:09.302Z,2.10
2023-01-31T00:16:13.996Z,3.00
2023-01-31T00:19:16.951Z,3.30
2023-01-31T00:22:19.842Z,2.20
2023-01-31T00:25:23.069Z,2.50
2023-01-31T00:28:25.907Z,3.10
2023-01-31T00:31:31.357Z,4.60
2023-01-31T00:34:34.745Z,4.60
2023-01-31T00:37:37.595Z,4.00
2023-01-31T00:40:40.786Z,2.10
2023-01-31T00:43:43.795Z,2.70
2023-01-31T00:46:46.777Z,3.00
2023-01-31T00:49:49.623Z,2.20
2023-01-31T00:52:52.582Z,1.70
2023-01-31T00:56:01.699Z,1.70
2023-01-31T00:59:08.634Z,2.50
2023-01-31T01:02:11.543Z,1.80
2023-01-31T01:05:14.665Z,1.40
2023-01-31T01:08:17.509Z,1.50
2023-01-31T01:11:26.079Z,1.10
2023-01-31T01:14:29.166Z,1.60
2023-01-31T01:17:32.673Z,1.80
2023-01-31T01:20:36.594Z,1.60
2023-01-31T01:23:41.009Z,2.60
2023-01-31T01:26:44.823Z,1.20
2023-01-31T01:29:47.800Z,1.40
2023-01-31T01:32:50.687Z,1.80
2023-01-31T01:35:53.532Z,1.30
2023-01-31T01:38:57.083Z,1.30
2023-01-31T01:41:59.863Z,1.70
2023-01-31T01:45:15.856Z,0.80
2023-01-31T01:48:18.828Z,1.90
2023-01-31T01:51:22.575Z,1.50
2023-01-31T01:54:30.768Z,1.50
2023-01-31T01:57:38.029Z,1.80
2023-01-31T02:00:40.993Z,2.30
2023-01-31T02:03:45.717Z,2.00
2023-01-31T02:06:49.059Z,1.40
2023-01-31T02:10:00.401Z,1.70
2023-01-31T02:13:04.103Z,2.20
2023-01-31T02:16:07.623Z,2.30
2023-01-31T02:19:22.641Z,1.30
2023-01-31T02:22:35.333Z,2.60
2023-01-31T02:29:24.517Z,3.40
2023-01-31T02:32:38.237Z,3.10
2023-01-31T02:36:19.237Z,0.90
2023-01-31T02:39:37.532Z,3.10
2023-01-31T02:42:55.156Z,2.80
2023-01-31T02:46:18.410Z,2.50
2023-01-31T02:49:40.774Z,2.50
2023-01-31T02:52:52.632Z,2.60
2023-01-31T02:56:20.646Z,1.90
2023-01-31T02:59:27.973Z,4.20
2023-01-31T03:02:30.831Z,1.10
2023-01-31T03:05:33.832Z,3.20
2023-01-31T03:08:42.921Z,1.10
2023-01-31T03:11:48.769Z,0.80
2023-01-31T03:14:54.344Z,0.90
2023-01-31T03:18:13.746Z,1.20
2023-01-31T03:21:27.955Z,1.10
2023-01-31T03:24:32.115Z,1.50
2023-01-31T03:27:36.621Z,1.10
2023-01-31T03:30:54.774Z,1.20
2023-01-31T03:34:03.899Z,1.20
2023-01-31T03:37:16.682Z,1.30
2023-01-31T03:40:31.168Z,7.00
2023-01-31T03:43:50.996Z,1.60
2023-01-31T03:47:00.506Z,4.60
2023-01-31T03:50:14.118Z,2.40
2023-01-31T03:53:20.495Z,1.70
2023-01-31T03:56:23.291Z,2.00
2023-01-31T03:59:32.545Z,1.70
2023-01-31T04:02:37.435Z,0.70
2023-01-31T04:05:41.004Z,1.30
2023-01-31T04:08:43.936Z,1.50
2023-01-31T04:11:50.698Z,1.30
2023-01-31T04:14:53.503Z,1.00
2023-01-31T04:17:56.353Z,2.60
2023-01-31T04:20:59.439Z,2.40
2023-01-31T04:24:02.572Z,0.90
2023-01-31T04:27:05.433Z,2.00
2023-01-31T04:30:08.867Z,0.90
2023-01-31T04:33:11.888Z,1.30
2023-01-31T04:36:14.828Z,1.50
2023-01-31T04:39:17.783Z,2.20
2023-01-31T04:42:20.665Z,1.00
2023-01-31T04:45:23.614Z,1.60
2023-01-31T04:48:28.293Z,1.70
2023-01-31T04:51:31.839Z,4.10
2023-01-31T04:54:34.708Z,2.30
2023-01-31T04:57:37.755Z,2.10
2023-01-31T05:00:40.599Z,1.70
2023-01-31T05:03:43.552Z,1.60
2023-01-31T05:06:46.458Z,1.70
2023-01-31T05:09:49.369Z,1.40
2023-01-31T05:12:52.385Z,1.40
2023-01-31T05:15:55.234Z,1.00
2023-01-31T05:18:58.138Z,1.40
2023-01-31T05:22:01.113Z,2.10
2023-01-31T05:25:05.096Z,2.90
2023-01-31T05:28:08.507Z,1.50
2023-01-31T05:31:13.527Z,1.40
2023-01-31T05:34:16.521Z,2.40
2023-01-31T05:37:19.569Z,1.40
2023-01-31T05:40:23.027Z,0.90
2023-01-31T05:43:25.838Z,1.10
2023-01-31T05:46:28.773Z,3.20
2023-01-31T05:49:33.663Z,1.30
2023-01-31T05:52:36.685Z,1.30
2023-01-31T05:55:39.655Z,1.10
2023-01-31T05:58:42.863Z,1.70
2023-01-31T06:01:45.881Z,1.70
2023-01-31T06:04:49.550Z,2.20
2023-01-31T06:07:52.444Z,1.00
2023-01-31T06:10:55.550Z,1.50
2023-01-31T06:13:59.499Z,1.80
2023-01-31T06:17:02.463Z,3.30
2023-01-31T06:20:06.026Z,2.40
2023-01-31T06:23:08.949Z,1.70
2023-01-31T06:26:12.510Z,1.20
2023-01-31T06:29:15.462Z,1.70
2023-01-31T06:32:18.514Z,1.90
2023-01-31T06:35:21.801Z,3.20
2023-01-31T06:38:24.834Z,2.30
2023-01-31T06:41:27.795Z,2.20
2023-01-31T06:44:33.320Z,1.70
2023-01-31T06:47:36.255Z,1.70
2023-01-31T06:50:39.100Z,1.50
2023-01-31T06:53:41.976Z,1.90
2023-01-31T06:56:44.775Z,1.90
2023-01-31T06:59:47.604Z,1.30
2023-01-31T07:02:51.230Z,1.30
2023-01-31T07:05:54.111Z,1.30
2023-01-31T07:08:57.104Z,2.00
2023-01-31T07:12:00.003Z,2.20
2023-01-31T07:15:03.584Z,1.90
2023-01-31T07:18:06.644Z,1.50
2023-01-31T07:21:10.997Z,1.90
2023-01-31T07:24:13.880Z,5.30
2023-01-31T07:27:17.311Z,4.20
2023-01-31T07:30:20.270Z,1.80
2023-01-31T07:33:23.139Z,1.30
2023-01-31T07:36:26.997Z,2.10
2023-01-31T07:39:30.214Z,2.90
2023-01-31T07:42:33.450Z,1.60
2023-01-31T07:45:36.670Z,1.40
2023-01-31T07:48:39.772Z,1.80
2023-01-31T07:51:42.868Z,1.80
2023-01-31T07:54:45.667Z,2.30
2023-01-31T07:57:48.666Z,1.50
2023-01-31T08:01:12.454Z,2.00
2023-01-31T08:04:22.569Z,3.10
2023-01-31T08:07:27.168Z,2.30
2023-01-31T08:10:30.664Z,2.40
2023-01-31T08:13:37.930Z,1.10
2023-01-31T08:16:41.044Z,3.40
2023-01-31T08:19:44.204Z,1.50
2023-01-31T08:22:47.088Z,1.50
2023-01-31T08:25:49.939Z,1.80
2023-01-31T08:28:54.182Z,2.60
2023-01-31T08:31:57.260Z,3.00
2023-01-31T08:35:00.194Z,1.80
2023-01-31T08:38:15.628Z,4.80
2023-01-31T08:41:21.205Z,2.20
2023-01-31T08:44:24.047Z,2.00
2023-01-31T08:47:26.888Z,1.60
2023-01-31T08:50:32.780Z,1.90
2023-01-31T08:53:39.055Z,2.70
2023-01-31T08:56:41.994Z,3.30
2023-01-31T08:59:44.820Z,3.00
2023-01-31T09:02:59.675Z,1.50
2023-01-31T09:06:05.207Z,2.00
2023-01-31T09:09:08.033Z,2.20
2023-01-31T09:12:10.843Z,1.40
2023-01-31T09:15:14.567Z,1.30
2023-01-31T09:18:17.455Z,2.00
2023-01-31T09:21:21.591Z,2.00
2023-01-31T09:24:24.660Z,2.40
2023-01-31T09:27:29.798Z,2.10
2023-01-31T09:30:32.684Z,2.30
2023-01-31T09:33:37.144Z,1.40
2023-01-31T09:36:40.054Z,1.50
2023-01-31T09:39:43.112Z,1.50
2023-01-31T09:42:48.501Z,2.30
2023-01-31T09:45:55.046Z,1.40
2023-01-31T09:49:02.168Z,1.40
2023-01-31T09:52:05.150Z,2.00
2023-01-31T09:55:16.929Z,1.30
2023-01-31T09:58:25.679Z,1.50
2023-01-31T10:01:53.656Z,2.00
2023-01-31T10:05:15.066Z,2.50
2023-01-31T10:08:33.494Z,1.70
2023-01-31T10:11:44.882Z,1.70
2023-01-31T10:15:11.129Z,3.20
2023-01-31T10:18:28.302Z,1.90
2023-01-31T10:21:46.202Z,1.80
2023-01-31T10:24:56.132Z,1.50
2023-01-31T10:28:30.406Z,1.80
2023-01-31T10:31:44.295Z,1.30
2023-01-31T10:35:42.877Z,2.10
2023-01-31T10:39:16.868Z,2.30
2023-01-31T10:42:27.773Z,1.90
2023-01-31T10:45:34.043Z,2.10
2023-01-31T10:51:50.865Z,2.20
2023-01-31T10:55:02.377Z,1.50
2023-01-31T10:58:06.723Z,3.40
2023-01-31T11:01:14.945Z,1.60
2023-01-31T11:04:32.138Z,1.80
2023-01-31T11:07:35.664Z,1.40
2023-01-31T11:10:52.043Z,3.20
2023-01-31T11:14:07.179Z,1.10
2023-01-31T11:17:19.470Z,1.20
2023-01-31T11:23:31.935Z,1.90
2023-01-31T11:29:51.178Z,3.50
2023-01-31T11:32:54.855Z,2.00
2023-01-31T11:35:57.907Z,3.20
2023-01-31T11:39:25.034Z,2.30
2023-01-31T11:42:28.008Z,3.20
2023-01-31T11:45:33.879Z,3.00
2023-01-31T11:48:42.891Z,2.70
2023-01-31T11:51:47.276Z,5.30
2023-01-31T11:54:56.101Z,3.10
2023-01-31T11:58:01.407Z,4.80
2023-01-31T12:01:14.669Z,1.90
2023-01-31T12:04:35.212Z,2.40
2023-01-31T12:07:54.155Z,6.40
2023-01-31T12:10:57.787Z,3.40
2023-01-31T12:14:11.765Z,3.60
2023-01-31T12:17:17.790Z,2.70
2023-01-31T12:20:39.650Z,3.20
2023-01-31T12:24:08.615Z,2.60
2023-01-31T12:27:29.697Z,2.00
2023-01-31T12:30:55.479Z,1.90
2023-01-31T12:34:07.468Z,1.60
2023-01-31T12:37:48.837Z,2.90
2023-01-31T12:41:31.482Z,3.50
2023-01-31T12:44:38.991Z,2.00
2023-01-31T12:48:03.426Z,3.20
2023-01-31T12:51:27.608Z,3.10
2023-01-31T12:54:33.748Z,2.10
2023-01-31T12:57:51.957Z,1.60
2023-01-31T13:01:34.652Z,2.70
2023-01-31T13:04:37.893Z,3.00
2023-01-31T13:07:44.998Z,2.00
2023-01-31T13:10:50.628Z,1.80
2023-01-31T13:14:12.148Z,2.30
2023-01-31T13:17:23.247Z,3.30
2023-01-31T13:20:31.734Z,3.70
2023-01-31T13:23:48.571Z,4.10
2023-01-31T13:27:10.476Z,4.00
2023-01-31T13:30:38.585Z,3.30
2023-01-31T13:33:51.045Z,3.00
2023-01-31T13:37:12.059Z,2.60
2023-01-31T13:40:22.200Z,3.40
2023-01-31T13:43:25.078Z,2.80
2023-01-31T13:46:34.011Z,2.30
2023-01-31T13:49:41.555Z,3.50
2023-01-31T13:52:57.162Z,2.20
2023-01-31T13:56:02.729Z,4.40
2023-01-31T13:59:10.093Z,2.70
2023-01-31T14:02:19.770Z,2.80
2023-01-31T14:05:41.251Z,4.20
2023-01-31T14:08:53.297Z,2.10
2023-01-31T14:12:09.712Z,2.20
2023-01-31T14:15:48.975Z,4.10
2023-01-31T14:18:51.949Z,2.60
2023-01-31T14:22:03.908Z,4.60
2023-01-31T14:25:09.715Z,4.10
2023-01-31T14:28:12.681Z,3.80
2023-01-31T14:31:20.473Z,3.10
2023-01-31T14:34:29.737Z,7.70
2023-01-31T14:37:52.806Z,6.70
2023-01-31T14:40:55.625Z,4.40
2023-01-31T14:44:10.739Z,5.60
2023-01-31T14:47:26.859Z,4.60
2023-01-31T14:50:35.339Z,6.20
2023-01-31T14:54:07.731Z,5.70
2023-01-31T14:57:25.649Z,4.10
2023-01-31T15:00:32.603Z,6.20
2023-01-31T15:03:40.282Z,5.10
2023-01-31T15:06:44.529Z,3.50
2023-01-31T15:09:50.195Z,4.20
2023-01-31T15:13:01.351Z,5.10
2023-01-31T15:16:09.353Z,4.50
2023-01-31T15:19:19.462Z,5.90
2023-01-31T15:22:23.659Z,3.10
2023-01-31T15:25:40.225Z,3.20
2023-01-31T15:28:45.332Z,3.20
2023-01-31T15:31:52.447Z,4.20
2023-01-31T15:35:07.544Z,4.30
2023-01-31T15:38:22.645Z,4.80
2023-01-31T15:41:43.305Z,4.50
2023-01-31T15:44:46.350Z,4.10
2023-01-31T15:48:06.755Z,1.90
2023-01-31T15:51:13.792Z,6.20
2023-01-31T15:54:16.869Z,3.10
2023-01-31T15:57:22.172Z,4.00
2023-01-31T16:00:25.866Z,2.70
2023-01-31T16:03:31.430Z,3.30
2023-01-31T16:06:39.955Z,2.00
2023-01-31T16:09:43.131Z,3.60
2023-01-31T16:12:49.323Z,2.70
2023-01-31T16:15:53.190Z,3.80
2023-01-31T16:18:59.224Z,3.60
2023-01-31T16:22:02.794Z,5.00
2023-01-31T16:25:06.054Z,3.60
2023-01-31T16:28:12.523Z,3.40
2023-01-31T16:31:18.283Z,4.30
2023-01-31T16:34:26.450Z,2.10
2023-01-31T16:37:44.057Z,7.40
2023-01-31T16:40:53.170Z,11.50
2023-01-31T16:43:56.948Z,9.70
2023-01-31T16:46:59.787Z,5.70
2023-01-31T16:50:42.521Z,7.40
2023-01-31T16:53:46.371Z,7.60
2023-01-31T16:57:01.667Z,5.60
2023-01-31T17:00:07.289Z,5.50
2023-01-31T17:03:19.890Z,11.60
2023-01-31T17:09:25.631Z,7.20
2023-01-31T17:12:30.965Z,9.30
2023-01-31T17:15:33.810Z,12.00
2023-01-31T17:18:37.064Z,9.00
2023-01-31T17:21:41.878Z,7.00
2023-01-31T17:24:46.862Z,5.40
2023-01-31T17:27:50.164Z,4.50
2023-01-31T17:30:53.275Z,3.60
2023-01-31T17:33:56.269Z,3.60
2023-01-31T17:36:59.113Z,5.00
2023-01-31T17:40:02.013Z,4.60
2023-01-31T17:43:05.230Z,4.50
2023-01-31T17:46:11.663Z,3.30
2023-01-31T17:52:17.585Z,3.00
2023-01-31T17:55:23.288Z,2.10
2023-01-31T17:58:27.518Z,2.80
2023-01-31T18:01:31.753Z,2.30
2023-01-31T18:04:34.880Z,4.00
2023-01-31T18:07:38.470Z,4.50
2023-01-31T18:10:42.324Z,1.60
2023-01-31T18:13:45.439Z,1.50
2023-01-31T18:16:50.946Z,3.90
2023-01-31T18:19:53.818Z,2.20
2023-01-31T18:22:56.657Z,1.90
2023-01-31T18:25:59.740Z,1.60
2023-01-31T18:29:02.606Z,2.10
2023-01-31T18:32:07.994Z,2.70
2023-01-31T18:35:11.175Z,1.70
2023-01-31T18:38:14.145Z,1.60
2023-01-31T18:41:19.652Z,2.20
2023-01-31T18:44:22.649Z,2.70
2023-01-31T18:47:25.508Z,1.50
2023-01-31T18:50:30.752Z,3.00
2023-01-31T18:53:35.169Z,1.60
2023-01-31T18:56:38.338Z,3.10
2023-01-31T18:59:41.453Z,2.30
2023-01-31T19:02:50.171Z,1.50
2023-01-31T19:05:53.356Z,3.90
2023-01-31T19:08:57.975Z,2.50
2023-01-31T19:12:01.011Z,4.50
2023-01-31T19:15:04.508Z,3.80
2023-01-31T19:18:07.553Z,3.20
2023-01-31T19:21:19.851Z,3.50
2023-01-31T19:24:23.132Z,3.10
2023-01-31T19:27:26.492Z,3.90
2023-01-31T19:30:29.451Z,2.10
2023-01-31T19:33:32.752Z,3.20
2023-01-31T19:36:38.625Z,2.40
2023-01-31T19:39:41.960Z,2.30
2023-01-31T19:42:45.847Z,4.20
2023-01-31T19:45:48.839Z,3.40
2023-01-31T19:48:51.821Z,3.30
2023-01-31T19:51:54.874Z,2.60
2023-01-31T19:54:58.163Z,3.70
2023-01-31T19:58:01.087Z,2.70
2023-01-31T20:01:06.737Z,2.30
2023-01-31T20:04:09.722Z,0.90
2023-01-31T20:07:12.829Z,3.30
2023-01-31T20:10:16.092Z,3.10
2023-01-31T20:13:21.798Z,3.50
2023-01-31T20:16:25.361Z,3.90
2023-01-31T20:19:28.286Z,2.60
2023-01-31T20:22:31.611Z,3.70
2023-01-31T20:25:34.580Z,2.30
2023-01-31T20:28:37.694Z,4.00
2023-01-31T20:31:40.908Z,3.60
2023-01-31T20:34:44.906Z,2.70
2023-01-31T20:37:50.867Z,1.70
2023-01-31T20:40:59.791Z,2.30
2023-01-31T20:44:10.550Z,2.40
2023-01-31T20:47:14.363Z,2.80
2023-01-31T20:50:19.269Z,3.00
2023-01-31T20:53:30.930Z,3.90
2023-01-31T20:56:33.903Z,2.20
2023-01-31T20:59:36.994Z,4.10
2023-01-31T21:02:39.944Z,2.30
2023-01-31T21:05:42.841Z,3.10
2023-01-31T21:08:48.353Z,3.60
2023-01-31T21:11:51.593Z,3.20
2023-01-31T21:14:54.560Z,3.70
2023-01-31T21:17:57.676Z,1.80
2023-01-31T21:21:06.926Z,4.10
2023-01-31T21:24:09.982Z,5.50
2023-01-31T21:27:13.061Z,1.90
2023-01-31T21:30:17.208Z,3.40
2023-01-31T21:33:20.105Z,2.30
2023-01-31T21:36:25.272Z,2.60
2023-01-31T21:39:28.210Z,3.40
2023-01-31T21:42:31.711Z,4.20
2023-01-31T21:45:40.552Z,2.90
2023-01-31T21:48:43.675Z,3.30
2023-01-31T21:51:46.711Z,2.90
2023-01-31T21:54:49.721Z,6.40
2023-01-31T21:57:52.905Z,3.20
2023-01-31T22:00:55.870Z,3.90
2023-01-31T22:03:59.326Z,2.10
2023-01-31T22:07:02.525Z,2.10
2023-01-31T22:10:05.953Z,3.80
2023-01-31T22:13:08.792Z,3.90
2023-01-31T22:16:12.900Z,4.50
2023-01-31T22:19:15.818Z,1.80
2023-01-31T22:22:18.700Z,2.20
2023-01-31T22:25:21.677Z,1.90
2023-01-31T22:28:25.061Z,2.00
2023-01-31T22:31:29.560Z,4.00
2023-01-31T22:34:32.540Z,3.20
2023-01-31T22:37:35.446Z,3.50
2023-01-31T22:40:43.397Z,2.20
2023-01-31T22:43:48.187Z,1.30
2023-01-31T22:46:51.218Z,4.30
2023-01-31T22:49:54.507Z,1.70
2023-01-31T22:52:57.378Z,3.60
2023-01-31T22:56:02.717Z,4.10
2023-01-31T22:59:06.667Z,2.80
2023-01-31T23:02:09.574Z,4.40
2023-01-31T23:05:12.508Z,5.70
2023-01-31T23:08:16.731Z,3.20
2023-01-31T23:11:20.206Z,3.40
2023-01-31T23:14:23.189Z,3.90
2023-01-31T23:17:38.324Z,3.80
2023-01-31T23:20:41.261Z,2.70
2023-01-31T23:23:45.111Z,4.30
2023-01-31T23:26:48.170Z,4.30
2023-01-31T23:29:51.235Z,2.50
2023-01-31T23:32:54.216Z,4.00
2023-01-31T23:35:57.188Z,3.70
2023-01-31T23:39:00.935Z,3.50
2023-01-31T23:42:03.917Z,3.30
2023-01-31T23:45:07.610Z,1.90
2023-01-31T23:48:10.426Z,6.10
2023-01-31T23:51:13.440Z,2.60
2023-01-31T23:54:16.492Z,4.70
2023-01-31T23:57:19.381Z,4.30
